Time;durP1;ratioP1;P1;durP2;ratioP2;P2;SDS_P1;SDS_P2;PMS_P1;PMS_P2;Temp;Humidity;BMP_temperature;BMP_pressure;BME280_temperature;BME280_humidity;BME280_pressure;Samples;Min_cycle;Max_cycle;Signal;HPM_P1;HPM_P2
2023/05/12 00:01:47;;;;;;;12.35;5.43;;;;;;;21.82;40.08;99907.63;5037746;28;20049;-70
2023/05/12 00:04:15;;;;;;;11.45;5.00;;;;;;;21.80;40.66;99907.03;5018576;28;20071;-70
2023/05/12 00:06:41;;;;;;;12.07;4.80;;;;;;;21.64;41.17;99907.56;5045460;28;20041;-69
2023/05/12 00:09:08;;;;;;;13.50;5.00;;;;;;;21.68;40.49;99908.75;5037180;28;20041;-69
2023/05/12 00:11:36;;;;;;;22.50;5.68;;;;;;;22.09;41.69;99911.72;5036100;28;20040;-69
2023/05/12 00:14:02;;;;;;;12.32;5.55;;;;;;;21.85;41.88;99909.06;5050049;28;20052;-69
2023/05/12 00:16:28;;;;;;;12.95;5.35;;;;;;;21.61;40.71;99908.00;5049025;28;20048;-68
2023/05/12 00:18:55;;;;;;;12.98;4.85;;;;;;;21.62;41.69;99904.25;5062734;28;20056;-69
2023/05/12 00:21:21;;;;;;;11.63;5.30;;;;;;;21.57;40.61;99912.22;5050023;28;20040;-69
2023/05/12 00:23:47;;;;;;;11.90;4.60;;;;;;;21.74;40.43;99913.31;5065502;28;20044;-70
2023/05/12 00:26:13;;;;;;;13.52;4.75;;;;;;;21.53;40.54;99909.13;5069418;28;20058;-69
2023/05/12 00:28:41;;;;;;;11.13;4.53;;;;;;;21.56;40.01;99908.69;5074870;28;20047;-69
2023/05/12 00:31:07;;;;;;;13.13;4.60;;;;;;;21.63;39.55;99909.44;5057697;28;20063;-70
2023/05/12 00:33:33;;;;;;;12.98;4.50;;;;;;;21.59;39.78;99912.81;5030867;28;20049;-69
2023/05/12 00:36:00;;;;;;;9.85;4.65;;;;;;;21.55;39.88;99915.16;5071273;28;20467;-69
2023/05/12 00:38:26;;;;;;;16.25;5.07;;;;;;;21.64;39.11;99912.97;5013762;28;20057;-70
2023/05/12 00:40:52;;;;;;;11.75;4.47;;;;;;;21.65;39.34;99914.63;4977282;28;20057;-69
2023/05/12 00:43:19;;;;;;;8.57;4.07;;;;;;;21.61;39.07;99913.41;4985068;28;20136;-69
2023/05/12 00:45:45;;;;;;;9.93;4.22;;;;;;;21.61;39.19;99899.91;4960794;28;20199;-68
2023/05/12 00:48:11;;;;;;;11.57;3.97;;;;;;;21.54;38.73;99902.66;4946480;28;20049;-69
2023/05/12 00:50:37;;;;;;;17.90;4.10;;;;;;;21.48;37.92;99911.66;4984770;28;20050;-68
2023/05/12 00:53:03;;;;;;;9.70;4.40;;;;;;;21.81;38.29;99905.13;4976835;28;20565;-68
2023/05/12 00:55:30;;;;;;;12.43;4.32;;;;;;;21.65;38.47;99904.63;4984524;28;20030;-69
2023/05/12 00:57:56;;;;;;;11.50;4.40;;;;;;;21.66;38.35;99908.97;4959586;28;20061;-69
2023/05/12 01:00:23;;;;;;;6.78;4.38;;;;;;;21.67;38.39;99909.81;4959270;28;20041;-69
2023/05/12 01:02:49;;;;;;;10.40;4.18;;;;;;;21.63;37.60;99914.03;4975319;28;20046;-68
2023/05/12 01:05:16;;;;;;;8.88;4.05;;;;;;;21.67;37.82;99909.81;4962103;28;20046;-69
2023/05/12 01:07:43;;;;;;;12.02;4.00;;;;;;;22.08;37.93;99915.44;4980848;28;20499;-68
2023/05/12 01:10:19;;;;;;;11.90;4.00;;;;;;;22.55;36.74;99913.88;5012670;28;20052;-68
2023/05/12 01:12:46;;;;;;;11.15;4.20;;;;;;;21.73;37.50;99906.22;5036405;28;20461;-68
2023/05/12 01:15:12;;;;;;;11.40;4.35;;;;;;;21.57;37.36;99910.31;5003187;28;20044;-68
2023/05/12 01:17:42;;;;;;;15.43;4.65;;;;;;;21.87;37.78;99913.19;5004405;28;20055;-68
2023/05/12 01:20:08;;;;;;;7.80;4.32;;;;;;;21.63;37.58;99903.22;5034885;28;20489;-68
2023/05/12 01:22:35;;;;;;;19.02;4.88;;;;;;;21.67;37.75;99907.97;5051530;28;20040;-68
2023/05/12 01:25:04;;;;;;;9.05;4.00;;;;;;;21.96;37.54;99901.00;5035216;28;20067;-70
2023/05/12 01:27:33;;;;;;;11.73;4.40;;;;;;;22.04;37.18;99906.13;5067785;28;20075;-70
2023/05/12 01:30:02;;;;;;;12.07;3.83;;;;;;;21.88;37.19;99905.91;5050779;28;20057;-69
2023/05/12 01:32:33;;;;;;;16.30;4.43;;;;;;;21.67;37.12;99901.72;5035064;28;20106;-69
2023/05/12 01:34:59;;;;;;;8.70;4.63;;;;;;;21.39;37.42;99904.03;5036362;28;20040;-69
2023/05/12 01:37:28;;;;;;;10.75;3.80;;;;;;;21.38;37.16;99910.50;5052979;28;20071;-69
2023/05/12 01:39:55;;;;;;;7.25;3.70;;;;;;;21.41;36.89;99902.78;5053115;28;20466;-68
2023/05/12 01:42:21;;;;;;;9.90;3.95;;;;;;;21.37;36.94;99903.47;5053180;28;20091;-68
2023/05/12 01:44:48;;;;;;;13.68;4.88;;;;;;;21.32;36.55;99911.38;5036717;28;20040;-69
2023/05/12 01:47:14;;;;;;;7.63;3.58;;;;;;;21.28;36.25;99896.69;5053555;28;20044;-68
2023/05/12 01:49:42;;;;;;;10.73;3.45;;;;;;;21.21;36.67;99901.28;5070096;28;20044;-68
2023/05/12 01:52:12;;;;;;;10.90;3.53;;;;;;;21.18;37.03;99896.31;5038219;28;20086;-68
2023/05/12 01:54:39;;;;;;;8.98;3.65;;;;;;;21.20;36.62;99903.16;5036656;28;20036;-68
2023/05/12 01:57:06;;;;;;;7.38;3.55;;;;;;;21.23;36.70;99907.31;5053501;28;20121;-68
2023/05/12 01:59:35;;;;;;;10.05;3.65;;;;;;;21.26;36.26;99904.16;5012651;28;20140;-68
2023/05/12 02:02:03;;;;;;;10.90;3.90;;;;;;;21.26;36.02;99902.31;4980127;28;20053;-68
2023/05/12 02:04:30;;;;;;;11.48;3.70;;;;;;;21.21;35.50;99902.13;5012438;28;20082;-68
2023/05/12 02:06:57;;;;;;;7.90;4.10;;;;;;;21.30;34.59;99902.66;5012339;28;20041;-68
2023/05/12 02:09:23;;;;;;;10.93;3.45;;;;;;;21.30;34.46;99905.38;5012372;28;20057;-68
2023/05/12 02:11:52;;;;;;;7.93;3.60;;;;;;;21.83;34.91;99903.88;5012371;28;20149;-68
2023/05/12 02:14:20;;;;;;;8.70;3.33;;;;;;;21.46;33.97;99899.44;5012211;28;20439;-68
2023/05/12 02:16:51;;;;;;;9.82;4.03;;;;;;;21.46;34.03;99902.13;5012576;28;20037;-68
2023/05/12 02:19:20;;;;;;;10.07;3.42;;;;;;;21.93;34.61;99909.59;4979988;28;20160;-68
2023/05/12 02:21:47;;;;;;;7.38;3.63;;;;;;;21.42;34.71;99898.19;5012272;28;20814;-69
2023/05/12 02:24:17;;;;;;;13.15;4.00;;;;;;;21.21;34.39;99896.72;4979811;28;20148;-69
2023/05/12 02:26:44;;;;;;;9.07;3.55;;;;;;;21.21;34.06;99901.28;5012564;28;20049;-69
2023/05/12 02:29:11;;;;;;;8.70;3.15;;;;;;;21.29;34.30;99906.44;4979584;28;20060;-69
2023/05/12 02:31:37;;;;;;;9.85;3.95;;;;;;;21.31;33.96;99896.25;5032363;28;20052;-69
2023/05/12 02:34:13;;;;;;;8.20;3.65;;;;;;;21.80;33.86;99900.78;5022620;28;20098;-69
2023/05/12 02:36:40;;;;;;;9.98;4.05;;;;;;;21.77;33.59;99895.81;4997107;28;20045;-70
2023/05/12 02:39:06;;;;;;;9.25;3.63;;;;;;;21.35;34.09;99894.75;5014149;28;20053;-70
2023/05/12 02:41:32;;;;;;;9.52;3.78;;;;;;;21.37;33.52;99901.56;5014016;28;20059;-69
2023/05/12 02:43:58;;;;;;;8.25;3.80;;;;;;;21.41;33.88;99894.69;4998795;28;20041;-71
2023/05/12 02:46:24;;;;;;;9.77;4.10;;;;;;;21.45;33.00;99897.75;5018852;28;20079;-70
2023/05/12 02:48:50;;;;;;;6.45;3.90;;;;;;;21.42;33.45;99890.09;5002553;28;20483;-70
2023/05/12 02:51:17;;;;;;;12.10;3.80;;;;;;;21.48;33.57;99902.75;5018818;28;20396;-70
2023/05/12 02:53:43;;;;;;;9.00;3.22;;;;;;;21.54;33.63;99904.56;5002776;28;20044;-70
2023/05/12 02:56:09;;;;;;;10.65;3.53;;;;;;;21.58;32.85;99908.47;5002588;28;20604;-70
2023/05/12 02:58:35;;;;;;;10.00;3.72;;;;;;;21.58;33.37;99912.00;4999019;28;20414;-70
2023/05/12 03:01:01;;;;;;;15.88;4.07;;;;;;;21.60;32.49;99906.38;4990169;28;20060;-69
2023/05/12 03:03:27;;;;;;;10.80;4.03;;;;;;;21.56;32.87;99902.44;5035248;28;20628;-70
2023/05/12 03:05:53;;;;;;;9.52;3.33;;;;;;;21.61;32.33;99916.13;5001740;28;20131;-71
2023/05/12 03:08:19;;;;;;;6.68;3.25;;;;;;;21.69;32.84;99907.72;5033462;28;20139;-69
2023/05/12 03:10:45;;;;;;;9.52;3.70;;;;;;;21.72;33.82;99910.00;5038059;28;20048;-70
2023/05/12 03:13:12;;;;;;;9.50;3.72;;;;;;;21.82;33.78;99906.81;5004893;28;20524;-70
2023/05/12 03:15:38;;;;;;;12.95;4.25;;;;;;;21.85;34.52;99900.94;5035324;28;20045;-70
2023/05/12 03:18:05;;;;;;;14.40;3.83;;;;;;;21.87;33.17;99902.38;5031232;28;20135;-70
2023/05/12 03:20:33;;;;;;;11.75;4.38;;;;;;;21.89;33.29;99905.69;5071561;28;20036;-70
2023/05/12 03:22:59;;;;;;;7.70;3.65;;;;;;;21.86;32.67;99905.31;5038651;28;20044;-70
2023/05/12 03:25:25;;;;;;;12.60;4.72;;;;;;;21.95;33.12;99907.50;5005115;28;20099;-70
2023/05/12 03:27:52;;;;;;;7.95;4.18;;;;;;;22.10;32.29;99907.94;5005353;28;20474;-70
2023/05/12 03:30:18;;;;;;;12.60;3.80;;;;;;;22.13;32.33;99901.25;5018907;28;20045;-69
2023/05/12 03:32:45;;;;;;;7.57;4.03;;;;;;;22.09;32.27;99906.28;5055842;28;20063;-69
2023/05/12 03:35:11;;;;;;;14.55;4.10;;;;;;;22.01;31.74;99912.00;5022946;28;20084;-69
2023/05/12 03:37:37;;;;;;;13.25;4.45;;;;;;;22.11;32.02;99906.06;5041909;28;20139;-69
2023/05/12 03:40:05;;;;;;;12.95;4.03;;;;;;;22.29;32.00;99906.88;5042199;28;20044;-71
2023/05/12 03:42:32;;;;;;;18.20;4.22;;;;;;;22.46;31.71;99907.09;5042335;28;20048;-70
2023/05/12 03:44:59;;;;;;;13.00;4.50;;;;;;;22.21;32.34;99907.19;5058614;28;20050;-70
2023/05/12 03:47:25;;;;;;;11.57;4.25;;;;;;;22.24;31.83;99904.03;5058564;28;20052;-71
2023/05/12 03:49:52;;;;;;;11.60;3.72;;;;;;;22.99;32.07;99908.84;5024960;28;20466;-69
2023/05/12 03:52:17;;;;;;;9.73;3.90;;;;;;;22.38;32.05;99908.22;5038186;28;20071;-68
2023/05/12 03:54:45;;;;;;;10.80;4.15;;;;;;;22.46;32.15;99907.94;5044160;28;20044;-70
2023/05/12 03:57:13;;;;;;;13.13;4.57;;;;;;;22.59;32.59;99907.75;5041341;28;20470;-69
2023/05/12 03:59:39;;;;;;;20.63;5.03;;;;;;;22.63;32.77;99903.53;5037880;28;20036;-69
2023/05/12 04:02:06;;;;;;;11.35;5.32;;;;;;;22.83;33.42;99912.22;5030410;28;20191;-70
2023/05/12 04:04:32;;;;;;;14.88;4.43;;;;;;;22.94;32.07;99906.00;5070829;28;20470;-69
2023/05/12 04:06:58;;;;;;;13.30;5.43;;;;;;;23.45;33.33;99907.34;5030778;28;20131;-75
2023/05/12 04:09:24;;;;;;;25.40;5.80;;;;;;;23.47;32.63;99899.78;5050871;28;20360;-74
2023/05/12 04:11:50;;;;;;;23.42;6.20;;;;;;;23.65;33.15;99902.41;5080391;28;20444;-73
2023/05/12 04:14:16;;;;;;;13.18;5.90;;;;;;;23.82;33.58;99898.72;5049384;28;20036;-74
2023/05/12 04:16:42;;;;;;;11.88;6.05;;;;;;;23.99;33.18;99898.84;5047749;28;20049;-77
2023/05/12 04:19:08;;;;;;;11.63;5.20;;;;;;;24.27;32.14;99910.59;5063949;28;20818;-75
2023/05/12 04:21:34;;;;;;;20.50;4.95;;;;;;;24.52;31.46;99904.84;5039674;28;20076;-75
2023/05/12 04:24:00;;;;;;;19.98;5.10;;;;;;;24.56;31.53;99897.88;5056165;28;20074;-75
2023/05/12 04:26:32;;;;;;;18.90;4.97;;;;;;;24.75;30.90;99899.38;5075508;28;20048;-74
2023/05/12 04:29:06;;;;;;;14.05;5.43;;;;;;;24.87;30.76;99891.97;5051645;28;20086;-77
2023/05/12 04:31:32;;;;;;;18.48;5.70;;;;;;;24.99;31.29;99906.31;5075945;28;20466;-74
2023/05/12 04:33:58;;;;;;;16.77;5.40;;;;;;;25.13;31.09;99902.22;5091554;28;20039;-76
2023/05/12 04:36:24;;;;;;;11.32;5.72;;;;;;;25.11;31.75;99898.13;5092179;28;20082;-75
2023/05/12 04:38:50;;;;;;;15.07;5.97;;;;;;;25.19;31.47;99912.13;5057490;28;20082;-72
2023/05/12 04:41:16;;;;;;;23.17;13.35;;;;;;;25.33;31.62;99902.59;5059089;28;20515;-75
2023/05/12 04:43:42;;;;;;;13.95;6.00;;;;;;;25.40;30.91;99907.88;5074661;28;20052;-74
2023/05/12 04:46:09;;;;;;;12.68;6.70;;;;;;;25.40;31.25;99895.09;5058307;28;20040;-76
2023/05/12 04:48:40;;;;;;;17.38;8.65;;;;;;;25.52;30.92;99904.00;5073862;28;20131;-75
2023/05/12 04:51:06;;;;;;;19.08;6.22;;;;;;;25.75;30.11;99906.53;5075369;28;20047;-76
2023/05/12 04:53:33;;;;;;;11.15;5.55;;;;;;;25.77;31.00;99898.94;5075233;28;20040;-76
2023/05/12 04:56:00;;;;;;;15.88;5.72;;;;;;;25.71;30.13;99899.94;5075890;28;20067;-76
2023/05/12 04:58:29;;;;;;;14.50;6.10;;;;;;;25.90;30.17;99909.47;5109887;28;20438;-76
2023/05/12 05:00:55;;;;;;;9.73;5.57;;;;;;;25.99;30.53;99899.84;5072563;28;20111;-73
2023/05/12 05:03:21;;;;;;;13.95;6.15;;;;;;;26.13;29.97;99898.41;5071107;28;20040;-73
2023/05/12 05:05:49;;;;;;;11.93;5.72;;;;;;;26.16;29.83;99910.66;5021024;28;20082;-75
2023/05/12 05:08:17;;;;;;;13.85;6.07;;;;;;;26.40;29.78;99899.28;5011495;28;20057;-77
2023/05/12 05:10:43;;;;;;;18.33;6.82;;;;;;;26.72;29.40;99891.25;4979798;28;20419;-76
2023/05/12 05:13:08;;;;;;;11.45;5.32;;;;;;;26.61;28.93;99899.50;5012044;28;20053;-76
2023/05/12 05:15:34;;;;;;;15.10;5.90;;;;;;;26.59;28.84;99893.47;5012877;28;20072;-74
2023/05/12 05:18:00;;;;;;;14.60;6.47;;;;;;;26.60;28.84;99895.16;4980337;28;20050;-75
2023/05/12 05:20:27;;;;;;;16.75;6.53;;;;;;;26.59;29.55;99888.88;5012826;28;20500;-75
2023/05/12 05:22:53;;;;;;;16.92;6.18;;;;;;;26.49;29.33;99892.28;4980537;28;20053;-75
2023/05/12 05:25:19;;;;;;;18.65;6.10;;;;;;;26.48;28.74;99889.03;5012716;28;20072;-77
2023/05/12 05:27:47;;;;;;;16.00;5.90;;;;;;;26.54;28.56;99882.56;5012670;28;20076;-76
2023/05/12 05:30:13;;;;;;;15.85;5.30;;;;;;;26.40;28.59;99901.19;5011172;28;20503;-76
2023/05/12 05:32:40;;;;;;;11.25;5.78;;;;;;;26.36;28.87;99886.41;5012622;28;20049;-75
2023/05/12 05:35:07;;;;;;;10.80;5.85;;;;;;;26.26;28.98;99895.28;4995885;28;20045;-77
2023/05/12 05:37:36;;;;;;;15.03;6.30;;;;;;;26.29;29.23;99913.84;4996395;28;20045;-76
2023/05/12 05:40:02;;;;;;;12.32;6.13;;;;;;;26.52;29.26;99904.59;5028926;28;20084;-75
2023/05/12 05:42:30;;;;;;;19.05;6.72;;;;;;;26.54;29.28;99904.34;5018892;28;20037;-74
2023/05/12 05:44:56;;;;;;;15.95;6.85;;;;;;;26.56;29.67;99900.28;5019285;28;20094;-75
2023/05/12 05:47:23;;;;;;;12.23;6.15;;;;;;;26.71;29.58;99899.66;5034158;28;20036;-76
2023/05/12 05:49:49;;;;;;;16.08;6.57;;;;;;;26.74;29.55;99902.69;5019881;28;20044;-75
2023/05/12 05:52:15;;;;;;;13.13;6.45;;;;;;;26.84;29.18;99900.09;5072315;28;20059;-76
2023/05/12 05:54:41;;;;;;;12.02;6.07;;;;;;;26.86;29.50;99908.00;5057054;28;20048;-75
2023/05/12 05:57:07;;;;;;;14.75;6.10;;;;;;;26.88;29.07;99903.94;5072700;28;20047;-77
2023/05/12 05:59:33;;;;;;;18.60;6.57;;;;;;;26.95;29.04;99896.38;5072985;28;20051;-76
2023/05/12 06:01:59;;;;;;;17.48;6.13;;;;;;;27.32;28.96;99904.66;5073401;28;20044;-74
2023/05/12 06:04:25;;;;;;;18.50;6.35;;;;;;;27.05;28.66;99892.91;5056344;28;20040;-74
2023/05/12 07:17:42;;;;;;;5.07;2.17;;;;;;;34.19;14.13;99895.50;5100759;27;20429;-76
2023/05/12 07:20:08;;;;;;;9.05;2.47;;;;;;;35.92;13.00;99894.78;5067122;28;20143;-78
2023/05/12 07:22:35;;;;;;;5.97;2.00;;;;;;;37.96;11.01;99895.00;5067468;28;20140;-79
2023/05/12 07:25:01;;;;;;;5.50;2.10;;;;;;;39.85;9.46;99895.28;5046057;28;20041;-80
2023/05/12 07:27:29;;;;;;;7.82;1.90;;;;;;;41.95;8.21;99889.84;5046959;28;20103;-80
2023/05/12 07:29:55;;;;;;;9.05;2.08;;;;;;;44.42;6.33;99889.13;5065554;28;20088;-80
2023/05/12 07:32:21;;;;;;;8.13;2.30;;;;;;;46.02;5.68;99890.75;5049370;28;20569;-79
2023/05/12 07:34:47;;;;;;;6.20;1.88;;;;;;;47.77;4.51;99892.97;5032536;28;20084;-78
2023/05/12 07:37:12;;;;;;;4.80;2.20;;;;;;;49.41;3.79;99885.50;5016160;28;20178;-80
2023/05/12 07:39:38;;;;;;;7.22;2.13;;;;;;;50.48;3.06;99887.91;5049331;28;20102;-73
2023/05/12 07:42:04;;;;;;;7.32;2.15;;;;;;;50.84;3.71;99875.00;5049047;28;20032;-80
2023/05/12 07:44:32;;;;;;;8.93;2.05;;;;;;;51.26;2.99;99874.47;5016093;28;20471;-77
2023/05/12 07:46:58;;;;;;;5.30;2.20;;;;;;;50.62;2.91;99876.44;5027963;28;20045;-79
2023/05/12 07:49:24;;;;;;;5.78;2.53;;;;;;;50.66;3.25;99868.75;5012432;28;20053;-79
2023/05/12 07:51:50;;;;;;;12.93;2.63;;;;;;;50.29;2.99;99868.69;5012535;28;20041;-80
2023/05/12 07:54:17;;;;;;;15.88;3.20;;;;;;;50.37;2.83;99870.25;5012539;28;20503;-80
2023/05/12 07:56:42;;;;;;;16.10;3.22;;;;;;;50.58;3.06;99863.56;5028745;28;20067;-80
2023/05/12 07:59:09;;;;;;;10.90;2.85;;;;;;;50.54;3.22;99867.25;5012793;28;20057;-80
2023/05/12 08:01:35;;;;;;;14.95;2.80;;;;;;;50.87;2.69;99870.53;5026205;28;20060;-81
2023/05/12 08:04:01;;;;;;;13.00;2.80;;;;;;;51.21;2.51;99871.31;5029621;28;20033;-81
2023/05/12 08:06:27;;;;;;;19.55;2.90;;;;;;;51.82;2.56;99858.72;5029719;28;20384;-81
2023/05/12 08:08:56;;;;;;;10.63;2.83;;;;;;;52.60;2.29;99867.44;5042725;28;20060;-81
2023/05/12 08:11:22;;;;;;;9.02;2.63;;;;;;;52.56;2.55;99860.25;4993483;28;20049;-78
2023/05/12 08:13:48;;;;;;;11.73;3.35;;;;;;;52.72;2.22;99857.50;5059250;28;20041;-80
2023/05/12 08:16:14;;;;;;;10.05;3.40;;;;;;;52.72;2.13;99861.16;5007271;28;20144;-81
2023/05/12 08:18:40;;;;;;;19.88;3.42;;;;;;;52.70;2.11;99857.16;5011705;28;20172;-79
2023/05/12 08:21:06;;;;;;;7.13;2.53;;;;;;;53.26;1.69;99851.09;4995720;28;20046;-80
2023/05/12 08:23:32;;;;;;;7.65;2.35;;;;;;;53.89;1.39;99856.50;5028281;28;20049;-78
2023/05/12 08:25:58;;;;;;;9.15;2.50;;;;;;;54.49;1.13;99844.34;4979270;28;20469;-77
2023/05/12 08:28:23;;;;;;;21.75;2.90;;;;;;;54.57;1.19;99849.44;4979533;28;20046;-77
2023/05/12 08:30:49;;;;;;;7.05;2.28;;;;;;;54.79;1.29;99835.38;4978870;28;20077;-77
2023/05/12 08:33:17;;;;;;;14.50;2.50;;;;;;;54.79;1.21;99844.69;4978970;28;20038;-78
2023/05/12 08:35:42;;;;;;;11.55;2.10;;;;;;;55.10;0.98;99844.22;5011352;28;20528;-78
2023/05/12 08:38:09;;;;;;;14.85;2.40;;;;;;;55.71;0.71;99839.84;5011904;28;20050;-78
2023/05/12 08:40:43;;;;;;;15.13;2.42;;;;;;;56.23;0.83;99827.88;4995574;28;20057;-77
2023/05/12 08:43:23;;;;;;;16.35;2.25;;;;;;;56.30;0.67;99824.78;5011842;28;20046;-77
2023/05/12 08:45:50;;;;;;;10.20;2.50;;;;;;;56.14;0.87;99828.59;4979244;28;20049;-78
2023/05/12 08:48:18;;;;;;;9.90;1.90;;;;;;;56.72;0.67;99825.28;4995007;28;20092;-79
2023/05/12 08:50:45;;;;;;;14.18;2.00;;;;;;;57.09;0.46;99818.53;4996072;28;20634;-80
2023/05/12 08:53:11;;;;;;;13.18;1.40;;;;;;;57.32;0.03;99818.03;4998806;28;20116;-81
2023/05/12 08:55:39;;;;;;;9.65;2.28;;;;;;;58.04;0.00;99811.75;5029059;28;20053;-79
2023/05/12 08:58:07;;;;;;;6.40;1.75;;;;;;;56.23;0.20;99805.88;5012288;28;20088;-80
2023/05/12 09:00:34;;;;;;;10.13;1.47;;;;;;;53.11;0.67;99790.16;5012430;28;20133;-77
2023/05/12 09:03:04;;;;;;;15.00;2.20;;;;;;;51.69;1.63;99784.84;4995787;28;20044;-74
2023/05/12 09:05:31;;;;;;;9.10;1.80;;;;;;;51.39;1.60;99795.44;4995741;28;20045;-74
2023/05/12 09:07:59;;;;;;;8.70;2.20;;;;;;;51.95;1.26;99792.47;4995701;28;20038;-75
2023/05/12 09:10:26;;;;;;;7.22;1.67;;;;;;;52.78;1.15;99779.94;4995517;28;20129;-74
2023/05/12 09:12:54;;;;;;;8.13;1.50;;;;;;;52.96;0.85;99788.09;4978594;28;20072;-73
2023/05/12 09:15:26;;;;;;;12.48;1.77;;;;;;;51.76;1.24;99789.59;4979600;28;20128;-73
2023/05/12 09:17:52;;;;;;;7.30;1.88;;;;;;;50.19;1.61;99777.09;4995304;28;20061;-75
2023/05/12 09:20:18;;;;;;;14.35;1.80;;;;;;;51.50;1.57;99776.25;4995623;28;20060;-75
2023/05/12 09:22:43;;;;;;;4.35;2.20;;;;;;;53.00;1.06;99786.78;5011601;28;20050;-74
2023/05/12 09:25:20;;;;;;;14.68;1.80;;;;;;;54.75;0.16;99783.44;4995342;28;20069;-74
2023/05/12 09:27:48;;;;;;;5.55;1.42;;;;;;;54.65;0.37;99781.72;5011509;28;20393;-75
2023/05/12 09:30:15;;;;;;;5.60;1.40;;;;;;;55.10;0.27;99785.22;5011086;28;20378;-76
2023/05/12 09:32:41;;;;;;;4.35;1.60;;;;;;;55.27;0.00;99777.41;5011844;28;20045;-75
2023/05/12 09:35:12;;;;;;;8.23;1.80;;;;;;;55.95;0.41;99772.63;5011750;28;20050;-74
2023/05/12 09:37:39;;;;;;;6.57;1.63;;;;;;;55.83;0.27;99772.66;5028293;28;20128;-75
2023/05/12 09:40:07;;;;;;;6.88;2.30;;;;;;;56.09;0.00;99769.28;5011809;28;20042;-76
2023/05/12 09:42:35;;;;;;;3.83;1.60;;;;;;;55.31;0.08;99770.31;4995754;28;20097;-75
2023/05/12 09:45:08;;;;;;;5.43;1.90;;;;;;;55.70;0.07;99761.25;4994735;28;20080;-75
2023/05/12 09:47:36;;;;;;;10.85;2.75;;;;;;;55.41;0.45;99772.00;4998005;28;20052;-76
2023/05/12 09:50:03;;;;;;;5.95;1.65;;;;;;;55.80;0.17;99771.53;4998682;28;20150;-76
2023/05/12 09:52:38;;;;;;;9.60;1.70;;;;;;;56.27;0.00;99769.41;5015362;28;20566;-75
2023/05/12 09:55:09;;;;;;;5.53;1.52;;;;;;;53.91;0.72;99768.75;5030835;28;20037;-76
2023/05/12 09:57:39;;;;;;;7.40;2.45;;;;;;;52.81;0.93;99762.03;4998389;28;20048;-76
2023/05/12 10:00:13;;;;;;;4.80;1.40;;;;;;;50.92;1.36;99745.56;5015082;28;20056;-75
2023/05/12 10:02:44;;;;;;;7.68;2.00;;;;;;;48.89;2.17;99749.03;4998343;28;20037;-74
2023/05/12 10:05:15;;;;;;;9.15;1.67;;;;;;;49.80;1.88;99745.59;4998267;28;20042;-75
2023/05/12 10:07:44;;;;;;;7.50;1.98;;;;;;;50.84;1.72;99750.50;4998469;28;20041;-75
2023/05/12 10:10:11;;;;;;;6.15;1.65;;;;;;;51.61;1.33;99743.66;4981936;28;20515;-74
2023/05/12 10:12:36;;;;;;;5.20;1.92;;;;;;;52.63;0.93;99749.47;4997345;28;20041;-75
2023/05/12 10:15:03;;;;;;;11.77;1.67;;;;;;;51.89;1.25;99745.22;4981317;28;20045;-75
2023/05/12 10:17:34;;;;;;;15.75;2.20;;;;;;;50.06;1.54;99744.97;5030350;28;20053;-75
2023/05/12 10:20:00;;;;;;;8.68;2.10;;;;;;;47.97;2.22;99742.09;4997679;28;20037;-76
2023/05/12 10:22:28;;;;;;;10.07;1.90;;;;;;;48.04;2.29;99739.28;4997703;28;20052;-74
2023/05/12 10:24:54;;;;;;;8.38;1.70;;;;;;;49.08;2.51;99734.44;4997603;28;20053;-74
2023/05/12 10:27:20;;;;;;;4.72;2.28;;;;;;;50.10;1.85;99734.41;4997640;28;20052;-74
2023/05/12 10:29:47;;;;;;;10.00;2.10;;;;;;;51.43;1.16;99743.16;4981496;28;20042;-76
2023/05/12 10:32:13;;;;;;;3.92;1.63;;;;;;;52.60;0.81;99739.78;4981411;28;20550;-74
2023/05/12 10:34:40;;;;;;;8.13;1.77;;;;;;;54.11;0.49;99743.81;4981653;28;20048;-75
2023/05/12 10:37:12;;;;;;;4.40;1.65;;;;;;;54.74;0.00;99733.47;5014031;28;20045;-75
2023/05/12 10:39:49;;;;;;;5.78;1.73;;;;;;;54.18;0.26;99735.09;4981542;28;20029;-75
2023/05/12 10:42:25;;;;;;;7.95;3.10;;;;;;;52.26;1.22;99730.75;5030484;28;20523;-75
2023/05/12 10:44:54;;;;;;;5.18;1.52;;;;;;;51.30;1.77;99732.84;5014387;28;20053;-75
2023/05/12 10:47:28;;;;;;;9.73;2.03;;;;;;;52.08;1.05;99727.47;4981315;28;20041;-74
2023/05/12 10:49:59;;;;;;;5.10;1.50;;;;;;;51.40;1.20;99732.69;5013572;28;20140;-74
2023/05/12 10:52:25;;;;;;;4.97;1.58;;;;;;;49.50;1.72;99722.88;4981686;28;20053;-75
2023/05/12 10:54:59;;;;;;;6.57;1.50;;;;;;;48.35;2.05;99718.69;4980918;28;20640;-76
2023/05/12 10:57:27;;;;;;;5.22;1.95;;;;;;;46.68;2.66;99721.81;5029983;28;20048;-76
2023/05/12 10:59:57;;;;;;;5.60;1.50;;;;;;;45.95;3.12;99725.81;5029944;28;20042;-75
2023/05/12 11:02:28;;;;;;;11.27;1.75;;;;;;;44.66;3.48;99716.94;4997612;28;20053;-74
2023/05/12 11:04:57;;;;;;;8.57;1.92;;;;;;;43.78;4.30;99712.06;5030460;28;20037;-73
2023/05/12 11:07:28;;;;;;;7.50;1.73;;;;;;;43.49;4.14;99694.00;5013424;28;20068;-74
2023/05/12 11:09:55;;;;;;;10.02;2.00;;;;;;;42.76;4.43;99708.25;5013720;28;20040;-75
2023/05/12 11:12:22;;;;;;;4.03;1.90;;;;;;;41.78;4.79;99703.19;5045719;28;20041;-75
2023/05/12 11:14:48;;;;;;;5.63;2.17;;;;;;;40.95;5.01;99705.44;5029447;28;20045;-75
2023/05/12 11:17:14;;;;;;;18.52;3.10;;;;;;;40.40;5.27;99706.22;5013848;28;20079;-75
2023/05/12 11:19:45;;;;;;;9.95;2.20;;;;;;;40.37;5.53;99708.91;5025496;28;20033;-74
2023/05/12 11:22:12;;;;;;;7.32;1.90;;;;;;;39.76;6.12;99708.16;4996940;28;20091;-72
2023/05/12 11:24:38;;;;;;;3.72;1.63;;;;;;;39.86;6.10;99716.06;5018627;28;20041;-74
2023/05/12 11:27:05;;;;;;;7.10;2.20;;;;;;;39.81;5.96;99705.16;4980330;28;20484;-74
2023/05/12 11:29:32;;;;;;;9.95;2.20;;;;;;;40.47;5.59;99700.88;4996763;28;20045;-74
2023/05/12 11:32:01;;;;;;;5.03;2.13;;;;;;;40.70;5.56;99701.16;4980728;28;20045;-73
2023/05/12 11:34:27;;;;;;;10.93;2.20;;;;;;;40.46;6.05;99704.81;4957385;28;20058;-73
2023/05/12 11:36:54;;;;;;;10.07;2.15;;;;;;;40.42;5.83;99705.88;4972657;28;20057;-73
2023/05/12 11:39:26;;;;;;;5.97;2.40;;;;;;;40.04;5.85;99704.31;4972926;28;20507;-81
2023/05/12 11:41:52;;;;;;;9.43;2.20;;;;;;;39.04;6.42;99694.19;4966514;28;20055;-72
2023/05/12 11:44:20;;;;;;;5.30;2.10;;;;;;;38.75;6.84;99701.50;4934409;28;20051;-73
2023/05/12 11:47:05;;;;;;;11.00;2.28;;;;;;;38.83;6.76;99696.22;4930517;29;20495;-74
2023/05/12 11:49:31;;;;;;;7.80;2.22;;;;;;;37.68;7.25;99704.41;4947069;28;20142;-73
2023/05/12 11:52:01;;;;;;;5.93;2.28;;;;;;;37.92;7.34;99691.53;4935155;29;20511;-73
2023/05/12 11:54:28;;;;;;;10.07;2.55;;;;;;;37.13;7.58;99693.38;4934964;29;20526;-71
2023/05/12 11:56:56;;;;;;;7.15;2.10;;;;;;;36.86;7.56;99702.88;4950461;28;20130;-72
2023/05/12 11:59:30;;;;;;;15.07;2.20;;;;;;;37.22;8.03;99702.50;4934534;29;20075;-73
2023/05/12 12:01:57;;;;;;;9.50;2.20;;;;;;;36.77;8.06;99698.50;4964557;28;20134;-73
2023/05/12 12:04:41;;;;;;;7.47;2.05;;;;;;;37.21;7.76;99700.88;4966819;28;20602;-72
2023/05/12 12:07:09;;;;;;;7.20;2.17;;;;;;;36.81;7.82;99691.19;4989507;28;20082;-72
2023/05/12 12:09:41;;;;;;;3.63;2.30;;;;;;;37.19;8.28;99695.63;4988592;28;20097;-72
2023/05/12 12:12:10;;;;;;;4.07;2.00;;;;;;;37.20;8.20;99693.66;4994508;28;20061;-72
2023/05/12 12:14:37;;;;;;;8.25;2.47;;;;;;;36.84;8.02;99699.63;5013305;28;20444;-72
2023/05/12 12:17:04;;;;;;;7.43;1.92;;;;;;;36.89;8.31;99693.13;4996289;28;20145;-72
2023/05/12 12:19:30;;;;;;;7.82;2.03;;;;;;;36.37;8.06;99684.03;5029537;28;20168;-73
2023/05/12 12:21:57;;;;;;;2.85;2.08;;;;;;;36.59;8.17;99688.56;5029263;28;20157;-72
2023/05/12 12:24:23;;;;;;;4.53;2.50;;;;;;;36.64;8.48;99682.88;5029327;28;20060;-72
2023/05/12 12:26:50;;;;;;;6.97;2.20;;;;;;;36.49;7.94;99684.19;5029230;28;20068;-72
2023/05/12 12:29:16;;;;;;;8.55;2.20;;;;;;;36.51;8.09;99692.16;5012795;28;20050;-72
2023/05/12 12:31:42;;;;;;;9.40;2.40;;;;;;;36.16;8.30;99673.91;4996431;28;20457;-72
2023/05/12 12:34:09;;;;;;;10.32;1.90;;;;;;;36.31;8.14;99677.03;5029371;28;20080;-72
2023/05/12 12:36:35;;;;;;;6.72;1.80;;;;;;;35.89;8.29;99679.75;4996651;28;20501;-72
2023/05/12 12:39:02;;;;;;;4.50;1.88;;;;;;;35.85;8.36;99684.28;5012082;28;20046;-72
2023/05/12 12:41:28;;;;;;;2.90;1.92;;;;;;;35.52;8.41;99683.88;5029226;28;20370;-72
2023/05/12 12:43:54;;;;;;;6.90;2.20;;;;;;;35.53;8.42;99679.97;4996632;28;20038;-72